sensor_id;sensor_type;location;lat;lon;timestamp;temperature;humidity
67748;HTU21D;54543;50.712;6.070;2022-10-16T00:01:22;13.67;94.37
67748;HTU21D;54543;50.712;6.070;2022-10-16T00:03:48;13.63;94.26
67748;HTU21D;54543;50.712;6.070;2022-10-16T00:06:15;13.60;94.34
67748;HTU21D;54543;50.712;6.070;2022-10-16T00:08:41;13.58;94.27
67748;HTU21D;54543;50.712;6.070;2022-10-16T00:11:10;13.51;94.43
67748;HTU21D;54543;50.712;6.070;2022-10-16T00:13:37;13.49;94.30
67748;HTU21D;54543;50.712;6.070;2022-10-16T00:16:04;13.47;94.18
67748;HTU21D;54543;50.712;6.070;2022-10-16T00:18:29;13.40;93.88
67748;HTU21D;54543;50.712;6.070;2022-10-16T00:21:00;13.35;94.02
67748;HTU21D;54543;50.712;6.070;2022-10-16T00:23:26;13.32;94.11
67748;HTU21D;54543;50.712;6.070;2022-10-16T00:26:00;13.26;93.96
67748;HTU21D;54543;50.712;6.070;2022-10-16T00:28:26;13.21;94.11
67748;HTU21D;54543;50.712;6.070;2022-10-16T00:30:53;13.18;94.23
67748;HTU21D;54543;50.712;6.070;2022-10-16T00:33:19;13.16;94.34
67748;HTU21D;54543;50.712;6.070;2022-10-16T00:35:44;13.17;94.46
67748;HTU21D;54543;50.712;6.070;2022-10-16T00:38:10;13.15;94.41
67748;HTU21D;54543;50.712;6.070;2022-10-16T00:40:36;13.12;94.11
67748;HTU21D;54543;50.712;6.070;2022-10-16T00:43:02;13.11;94.18
67748;HTU21D;54543;50.712;6.070;2022-10-16T00:45:28;13.15;94.04
67748;HTU21D;54543;50.712;6.070;2022-10-16T00:47:55;13.14;93.54
67748;HTU21D;54543;50.712;6.070;2022-10-16T00:52:54;13.10;93.48
67748;HTU21D;54543;50.712;6.070;2022-10-16T00:55:20;13.10;93.42
67748;HTU21D;54543;50.712;6.070;2022-10-16T00:57:47;13.09;93.41
67748;HTU21D;54543;50.712;6.070;2022-10-16T01:00:20;13.12;93.04
67748;HTU21D;54543;50.712;6.070;2022-10-16T01:02:57;13.12;92.08
67748;HTU21D;54543;50.712;6.070;2022-10-16T01:05:28;13.08;91.59
67748;HTU21D;54543;50.712;6.070;2022-10-16T01:08:04;13.06;91.80
67748;HTU21D;54543;50.712;6.070;2022-10-16T01:10:41;13.07;91.77
67748;HTU21D;54543;50.712;6.070;2022-10-16T01:15:45;13.06;90.23
67748;HTU21D;54543;50.712;6.070;2022-10-16T01:21:05;13.11;91.19
67748;HTU21D;54543;50.712;6.070;2022-10-16T01:24:03;13.14;90.47
67748;HTU21D;54543;50.712;6.070;2022-10-16T01:29:18;13.22;90.59
67748;HTU21D;54543;50.712;6.070;2022-10-16T01:31:50;13.24;89.78
67748;HTU21D;54543;50.712;6.070;2022-10-16T01:34:44;13.21;89.87
67748;HTU21D;54543;50.712;6.070;2022-10-16T01:37:16;13.23;90.12
67748;HTU21D;54543;50.712;6.070;2022-10-16T01:39:45;13.22;89.65
67748;HTU21D;54543;50.712;6.070;2022-10-16T01:42:19;13.21;89.84
67748;HTU21D;54543;50.712;6.070;2022-10-16T01:44:46;13.21;90.18
67748;HTU21D;54543;50.712;6.070;2022-10-16T01:47:13;13.23;89.99
67748;HTU21D;54543;50.712;6.070;2022-10-16T01:49:40;13.22;90.37
67748;HTU21D;54543;50.712;6.070;2022-10-16T01:52:10;13.29;90.39
67748;HTU21D;54543;50.712;6.070;2022-10-16T01:54:37;13.27;90.06
67748;HTU21D;54543;50.712;6.070;2022-10-16T01:57:07;13.29;90.17
67748;HTU21D;54543;50.712;6.070;2022-10-16T01:59:37;13.32;90.31
67748;HTU21D;54543;50.712;6.070;2022-10-16T02:02:06;13.35;90.42
67748;HTU21D;54543;50.712;6.070;2022-10-16T02:04:37;13.33;90.09
67748;HTU21D;54543;50.712;6.070;2022-10-16T02:07:04;13.35;90.69
67748;HTU21D;54543;50.712;6.070;2022-10-16T02:09:33;13.43;90.42
67748;HTU21D;54543;50.712;6.070;2022-10-16T02:12:01;13.45;90.24
67748;HTU21D;54543;50.712;6.070;2022-10-16T02:14:29;13.47;89.97
67748;HTU21D;54543;50.712;6.070;2022-10-16T02:16:54;13.45;89.99
67748;HTU21D;54543;50.712;6.070;2022-10-16T02:19:20;13.46;90.13
67748;HTU21D;54543;50.712;6.070;2022-10-16T02:21:57;13.53;89.96
67748;HTU21D;54543;50.712;6.070;2022-10-16T02:25:21;13.58;89.73
67748;HTU21D;54543;50.712;6.070;2022-10-16T02:27:46;13.55;89.74
67748;HTU21D;54543;50.712;6.070;2022-10-16T02:30:24;13.54;89.92
67748;HTU21D;54543;50.712;6.070;2022-10-16T02:32:51;13.55;90.16
67748;HTU21D;54543;50.712;6.070;2022-10-16T02:35:20;13.58;90.04
67748;HTU21D;54543;50.712;6.070;2022-10-16T02:37:47;13.64;89.96
67748;HTU21D;54543;50.712;6.070;2022-10-16T02:40:13;13.60;89.86
67748;HTU21D;54543;50.712;6.070;2022-10-16T02:42:40;13.54;89.92
67748;HTU21D;54543;50.712;6.070;2022-10-16T02:45:08;13.50;90.12
67748;HTU21D;54543;50.712;6.070;2022-10-16T02:47:34;13.41;90.06
67748;HTU21D;54543;50.712;6.070;2022-10-16T02:50:00;13.36;90.43
67748;HTU21D;54543;50.712;6.070;2022-10-16T02:52:27;13.32;90.62
67748;HTU21D;54543;50.712;6.070;2022-10-16T02:54:52;13.32;90.88
67748;HTU21D;54543;50.712;6.070;2022-10-16T02:57:18;13.30;90.97
67748;HTU21D;54543;50.712;6.070;2022-10-16T02:59:44;13.30;91.10
67748;HTU21D;54543;50.712;6.070;2022-10-16T03:02:12;13.33;90.98
67748;HTU21D;54543;50.712;6.070;2022-10-16T03:04:38;13.31;90.96
67748;HTU21D;54543;50.712;6.070;2022-10-16T03:07:03;13.29;91.06
67748;HTU21D;54543;50.712;6.070;2022-10-16T03:09:29;13.24;91.18
67748;HTU21D;54543;50.712;6.070;2022-10-16T03:11:55;13.25;91.56
67748;HTU21D;54543;50.712;6.070;2022-10-16T03:14:20;13.27;91.39
67748;HTU21D;54543;50.712;6.070;2022-10-16T03:16:46;13.32;91.40
67748;HTU21D;54543;50.712;6.070;2022-10-16T03:19:12;13.33;91.25
67748;HTU21D;54543;50.712;6.070;2022-10-16T03:21:37;13.33;91.42
67748;HTU21D;54543;50.712;6.070;2022-10-16T03:24:03;13.35;91.34
67748;HTU21D;54543;50.712;6.070;2022-10-16T03:26:29;13.38;91.22
67748;HTU21D;54543;50.712;6.070;2022-10-16T03:28:54;13.41;91.37
67748;HTU21D;54543;50.712;6.070;2022-10-16T03:31:20;13.51;90.98
67748;HTU21D;54543;50.712;6.070;2022-10-16T03:33:45;13.52;90.55
67748;HTU21D;54543;50.712;6.070;2022-10-16T03:36:11;13.51;90.36
67748;HTU21D;54543;50.712;6.070;2022-10-16T03:38:37;13.51;90.38
67748;HTU21D;54543;50.712;6.070;2022-10-16T03:41:02;13.50;90.71
67748;HTU21D;54543;50.712;6.070;2022-10-16T03:43:29;13.50;90.50
67748;HTU21D;54543;50.712;6.070;2022-10-16T03:45:54;13.46;90.61
67748;HTU21D;54543;50.712;6.070;2022-10-16T03:48:19;13.45;90.79
67748;HTU21D;54543;50.712;6.070;2022-10-16T03:50:45;13.45;90.75
67748;HTU21D;54543;50.712;6.070;2022-10-16T03:53:13;13.44;90.80
67748;HTU21D;54543;50.712;6.070;2022-10-16T03:55:41;13.40;90.82
67748;HTU21D;54543;50.712;6.070;2022-10-16T03:58:07;13.39;90.92
67748;HTU21D;54543;50.712;6.070;2022-10-16T04:00:33;13.38;90.92
67748;HTU21D;54543;50.712;6.070;2022-10-16T04:03:00;13.35;90.94
67748;HTU21D;54543;50.712;6.070;2022-10-16T04:05:25;13.32;91.04
67748;HTU21D;54543;50.712;6.070;2022-10-16T04:07:51;13.29;91.06
67748;HTU21D;54543;50.712;6.070;2022-10-16T04:10:17;13.26;91.15
67748;HTU21D;54543;50.712;6.070;2022-10-16T04:12:42;13.25;91.30
67748;HTU21D;54543;50.712;6.070;2022-10-16T04:15:08;13.23;91.28
67748;HTU21D;54543;50.712;6.070;2022-10-16T04:17:34;13.18;91.34
67748;HTU21D;54543;50.712;6.070;2022-10-16T04:19:59;13.17;91.41
67748;HTU21D;54543;50.712;6.070;2022-10-16T04:22:25;13.14;91.42
67748;HTU21D;54543;50.712;6.070;2022-10-16T04:24:50;13.11;91.47
67748;HTU21D;54543;50.712;6.070;2022-10-16T04:27:16;13.07;91.52
67748;HTU21D;54543;50.712;6.070;2022-10-16T04:29:42;13.03;91.56
67748;HTU21D;54543;50.712;6.070;2022-10-16T04:32:10;13.04;92.01
67748;HTU21D;54543;50.712;6.070;2022-10-16T04:34:39;13.10;91.93
67748;HTU21D;54543;50.712;6.070;2022-10-16T04:37:05;13.09;91.64
67748;HTU21D;54543;50.712;6.070;2022-10-16T04:39:30;13.06;91.63
67748;HTU21D;54543;50.712;6.070;2022-10-16T04:41:56;13.04;91.55
67748;HTU21D;54543;50.712;6.070;2022-10-16T04:44:21;13.03;91.64
67748;HTU21D;54543;50.712;6.070;2022-10-16T04:46:49;13.00;91.68
67748;HTU21D;54543;50.712;6.070;2022-10-16T04:49:15;12.94;91.71
67748;HTU21D;54543;50.712;6.070;2022-10-16T04:51:40;12.93;91.79
67748;HTU21D;54543;50.712;6.070;2022-10-16T04:54:06;12.92;91.89
67748;HTU21D;54543;50.712;6.070;2022-10-16T04:56:31;12.91;91.93
67748;HTU21D;54543;50.712;6.070;2022-10-16T04:58:58;12.89;91.94
67748;HTU21D;54543;50.712;6.070;2022-10-16T05:01:24;12.87;92.04
67748;HTU21D;54543;50.712;6.070;2022-10-16T05:03:49;12.88;92.08
67748;HTU21D;54543;50.712;6.070;2022-10-16T05:06:15;12.88;92.10
67748;HTU21D;54543;50.712;6.070;2022-10-16T05:08:40;12.87;91.96
67748;HTU21D;54543;50.712;6.070;2022-10-16T05:11:07;12.82;91.63
67748;HTU21D;54543;50.712;6.070;2022-10-16T05:13:33;12.76;91.62
67748;HTU21D;54543;50.712;6.070;2022-10-16T05:15:58;12.71;91.62
67748;HTU21D;54543;50.712;6.070;2022-10-16T05:18:24;12.65;91.74
67748;HTU21D;54543;50.712;6.070;2022-10-16T05:20:49;12.62;91.72
67748;HTU21D;54543;50.712;6.070;2022-10-16T05:23:14;12.60;91.79
67748;HTU21D;54543;50.712;6.070;2022-10-16T05:25:40;12.58;91.83
67748;HTU21D;54543;50.712;6.070;2022-10-16T05:28:06;12.55;91.88
67748;HTU21D;54543;50.712;6.070;2022-10-16T05:30:31;12.55;91.97
67748;HTU21D;54543;50.712;6.070;2022-10-16T05:32:57;12.57;92.00
67748;HTU21D;54543;50.712;6.070;2022-10-16T05:35:22;12.57;92.01
67748;HTU21D;54543;50.712;6.070;2022-10-16T05:37:48;12.58;92.02
67748;HTU21D;54543;50.712;6.070;2022-10-16T05:40:14;12.61;92.21
67748;HTU21D;54543;50.712;6.070;2022-10-16T05:42:40;12.65;92.39
67748;HTU21D;54543;50.712;6.070;2022-10-16T05:45:06;12.71;92.40
67748;HTU21D;54543;50.712;6.070;2022-10-16T05:47:33;12.77;92.46
67748;HTU21D;54543;50.712;6.070;2022-10-16T05:49:59;12.84;92.44
67748;HTU21D;54543;50.712;6.070;2022-10-16T05:52:24;12.89;92.39
67748;HTU21D;54543;50.712;6.070;2022-10-16T05:54:50;12.93;92.33
67748;HTU21D;54543;50.712;6.070;2022-10-16T05:57:15;12.96;92.22
67748;HTU21D;54543;50.712;6.070;2022-10-16T05:59:41;12.96;92.01
67748;HTU21D;54543;50.712;6.070;2022-10-16T06:02:12;12.97;91.92
67748;HTU21D;54543;50.712;6.070;2022-10-16T06:04:37;12.97;91.92
67748;HTU21D;54543;50.712;6.070;2022-10-16T06:07:03;12.97;91.91
67748;HTU21D;54543;50.712;6.070;2022-10-16T06:09:28;12.96;91.92
67748;HTU21D;54543;50.712;6.070;2022-10-16T06:11:55;12.97;91.88
67748;HTU21D;54543;50.712;6.070;2022-10-16T06:14:21;12.96;91.88
67748;HTU21D;54543;50.712;6.070;2022-10-16T06:16:47;12.95;91.90
67748;HTU21D;54543;50.712;6.070;2022-10-16T06:19:13;12.93;91.73
67748;HTU21D;54543;50.712;6.070;2022-10-16T06:21:38;12.87;91.68
67748;HTU21D;54543;50.712;6.070;2022-10-16T06:24:04;12.85;91.74
67748;HTU21D;54543;50.712;6.070;2022-10-16T06:26:30;12.85;91.79
67748;HTU21D;54543;50.712;6.070;2022-10-16T06:28:57;12.85;91.92
67748;HTU21D;54543;50.712;6.070;2022-10-16T06:31:23;12.88;91.94
67748;HTU21D;54543;50.712;6.070;2022-10-16T06:33:53;12.91;91.96
67748;HTU21D;54543;50.712;6.070;2022-10-16T06:36:18;12.94;91.97
67748;HTU21D;54543;50.712;6.070;2022-10-16T06:38:44;12.96;91.87
67748;HTU21D;54543;50.712;6.070;2022-10-16T06:41:16;13.00;91.71
67748;HTU21D;54543;50.712;6.070;2022-10-16T06:43:42;13.01;91.61
67748;HTU21D;54543;50.712;6.070;2022-10-16T06:46:11;13.01;91.60
67748;HTU21D;54543;50.712;6.070;2022-10-16T06:48:37;13.03;91.66
67748;HTU21D;54543;50.712;6.070;2022-10-16T06:51:11;13.07;91.72
67748;HTU21D;54543;50.712;6.070;2022-10-16T06:53:40;13.11;91.83
67748;HTU21D;54543;50.712;6.070;2022-10-16T06:56:22;13.21;91.75
67748;HTU21D;54543;50.712;6.070;2022-10-16T06:58:49;13.25;91.42
67748;HTU21D;54543;50.712;6.070;2022-10-16T07:01:15;13.29;91.30
67748;HTU21D;54543;50.712;6.070;2022-10-16T07:03:43;13.29;91.28
67748;HTU21D;54543;50.712;6.070;2022-10-16T07:06:10;13.31;91.12
67748;HTU21D;54543;50.712;6.070;2022-10-16T07:08:38;13.29;91.15
67748;HTU21D;54543;50.712;6.070;2022-10-16T07:11:09;13.30;91.15
67748;HTU21D;54543;50.712;6.070;2022-10-16T07:13:40;13.29;91.27
67748;HTU21D;54543;50.712;6.070;2022-10-16T07:16:11;13.35;91.11
67748;HTU21D;54543;50.712;6.070;2022-10-16T07:18:37;13.34;91.53
67748;HTU21D;54543;50.712;6.070;2022-10-16T07:21:11;13.39;91.37
67748;HTU21D;54543;50.712;6.070;2022-10-16T07:23:37;13.39;91.18
67748;HTU21D;54543;50.712;6.070;2022-10-16T07:26:04;13.41;91.34
67748;HTU21D;54543;50.712;6.070;2022-10-16T07:28:31;13.44;91.08
67748;HTU21D;54543;50.712;6.070;2022-10-16T07:31:09;13.46;90.97
67748;HTU21D;54543;50.712;6.070;2022-10-16T07:33:36;13.52;90.90
67748;HTU21D;54543;50.712;6.070;2022-10-16T07:36:03;13.59;90.54
67748;HTU21D;54543;50.712;6.070;2022-10-16T07:38:29;13.65;90.78
67748;HTU21D;54543;50.712;6.070;2022-10-16T07:41:03;13.80;90.50
67748;HTU21D;54543;50.712;6.070;2022-10-16T07:43:29;13.95;90.18
67748;HTU21D;54543;50.712;6.070;2022-10-16T07:45:55;14.10;89.93
67748;HTU21D;54543;50.712;6.070;2022-10-16T07:48:22;14.29;89.60
67748;HTU21D;54543;50.712;6.070;2022-10-16T07:50:48;14.47;88.83
67748;HTU21D;54543;50.712;6.070;2022-10-16T07:53:14;14.63;87.94
67748;HTU21D;54543;50.712;6.070;2022-10-16T07:55:40;14.71;87.54
67748;HTU21D;54543;50.712;6.070;2022-10-16T07:58:06;14.83;87.23
67748;HTU21D;54543;50.712;6.070;2022-10-16T08:00:32;14.93;87.22
67748;HTU21D;54543;50.712;6.070;2022-10-16T08:02:58;15.02;86.88
67748;HTU21D;54543;50.712;6.070;2022-10-16T08:05:30;15.14;87.06
67748;HTU21D;54543;50.712;6.070;2022-10-16T08:07:56;15.25;86.61
67748;HTU21D;54543;50.712;6.070;2022-10-16T08:10:24;15.36;85.75
67748;HTU21D;54543;50.712;6.070;2022-10-16T08:12:51;15.43;85.61
67748;HTU21D;54543;50.712;6.070;2022-10-16T08:15:17;15.49;85.77
67748;HTU21D;54543;50.712;6.070;2022-10-16T08:17:43;15.60;85.91
67748;HTU21D;54543;50.712;6.070;2022-10-16T08:20:09;15.73;85.55
67748;HTU21D;54543;50.712;6.070;2022-10-16T08:22:35;15.82;84.77
67748;HTU21D;54543;50.712;6.070;2022-10-16T08:25:01;15.91;84.59
67748;HTU21D;54543;50.712;6.070;2022-10-16T08:27:31;16.02;84.03
67748;HTU21D;54543;50.712;6.070;2022-10-16T08:29:57;16.07;82.71
67748;HTU21D;54543;50.712;6.070;2022-10-16T08:32:23;16.19;83.13
67748;HTU21D;54543;50.712;6.070;2022-10-16T08:34:48;16.27;82.63
67748;HTU21D;54543;50.712;6.070;2022-10-16T08:37:14;16.34;82.20
67748;HTU21D;54543;50.712;6.070;2022-10-16T08:39:40;16.42;82.04
67748;HTU21D;54543;50.712;6.070;2022-10-16T08:42:29;16.47;81.35
67748;HTU21D;54543;50.712;6.070;2022-10-16T08:50:31;16.50;80.59
67748;HTU21D;54543;50.712;6.070;2022-10-16T08:52:58;16.55;80.17
67748;HTU21D;54543;50.712;6.070;2022-10-16T08:55:46;16.66;80.49
67748;HTU21D;54543;50.712;6.070;2022-10-16T08:58:22;16.76;79.37
67748;HTU21D;54543;50.712;6.070;2022-10-16T09:00:57;16.80;78.57
67748;HTU21D;54543;50.712;6.070;2022-10-16T09:06:52;16.91;78.10
67748;HTU21D;54543;50.712;6.070;2022-10-16T09:12:38;17.11;75.83
67748;HTU21D;54543;50.712;6.070;2022-10-16T09:17:52;17.26;79.59
67748;HTU21D;54543;50.712;6.070;2022-10-16T09:20:49;17.36;78.53
67748;HTU21D;54543;50.712;6.070;2022-10-16T09:23:22;17.41;78.73
67748;HTU21D;54543;50.712;6.070;2022-10-16T09:25:50;17.49;78.43
67748;HTU21D;54543;50.712;6.070;2022-10-16T09:28:17;17.53;78.34
67748;HTU21D;54543;50.712;6.070;2022-10-16T09:30:43;17.59;78.83
67748;HTU21D;54543;50.712;6.070;2022-10-16T09:33:11;17.67;77.96
67748;HTU21D;54543;50.712;6.070;2022-10-16T09:35:40;17.75;76.62
67748;HTU21D;54543;50.712;6.070;2022-10-16T09:38:07;17.80;77.58
67748;HTU21D;54543;50.712;6.070;2022-10-16T09:40:37;17.80;77.57
67748;HTU21D;54543;50.712;6.070;2022-10-16T09:43:26;17.83;74.84
67748;HTU21D;54543;50.712;6.070;2022-10-16T09:45:58;17.87;76.46
67748;HTU21D;54543;50.712;6.070;2022-10-16T09:48:47;17.88;76.96
67748;HTU21D;54543;50.712;6.070;2022-10-16T09:51:33;17.93;75.64
67748;HTU21D;54543;50.712;6.070;2022-10-16T09:54:11;18.04;76.26
67748;HTU21D;54543;50.712;6.070;2022-10-16T09:56:39;18.06;75.09
67748;HTU21D;54543;50.712;6.070;2022-10-16T09:59:12;17.94;76.24
67748;HTU21D;54543;50.712;6.070;2022-10-16T10:01:50;17.76;73.66
67748;HTU21D;54543;50.712;6.070;2022-10-16T10:04:17;17.74;76.25
67748;HTU21D;54543;50.712;6.070;2022-10-16T10:06:49;17.90;75.88
67748;HTU21D;54543;50.712;6.070;2022-10-16T10:11:56;17.96;75.05
67748;HTU21D;54543;50.712;6.070;2022-10-16T10:25:00;18.10;69.90
67748;HTU21D;54543;50.712;6.070;2022-10-16T10:30:42;17.85;74.82
67748;HTU21D;54543;50.712;6.070;2022-10-16T10:33:26;17.87;72.76
67748;HTU21D;54543;50.712;6.070;2022-10-16T10:38:48;17.93;72.88
67748;HTU21D;54543;50.712;6.070;2022-10-16T10:43:55;17.83;73.95
67748;HTU21D;54543;50.712;6.070;2022-10-16T10:46:34;17.73;73.67
67748;HTU21D;54543;50.712;6.070;2022-10-16T10:51:47;17.70;73.64
67748;HTU21D;54543;50.712;6.070;2022-10-16T10:54:20;17.70;74.57
67748;HTU21D;54543;50.712;6.070;2022-10-16T10:56:58;17.70;73.77
67748;HTU21D;54543;50.712;6.070;2022-10-16T10:59:40;17.68;73.06
67748;HTU21D;54543;50.712;6.070;2022-10-16T11:07:50;18.22;72.77
67748;HTU21D;54543;50.712;6.070;2022-10-16T11:10:22;18.41;70.96
67748;HTU21D;54543;50.712;6.070;2022-10-16T11:12:54;18.57;71.82
67748;HTU21D;54543;50.712;6.070;2022-10-16T11:15:30;18.76;70.49
67748;HTU21D;54543;50.712;6.070;2022-10-16T11:21:13;19.03;64.32
67748;HTU21D;54543;50.712;6.070;2022-10-16T11:26:46;18.95;71.35
67748;HTU21D;54543;50.712;6.070;2022-10-16T11:29:26;18.94;69.49
67748;HTU21D;54543;50.712;6.070;2022-10-16T11:32:01;18.88;66.02
67748;HTU21D;54543;50.712;6.070;2022-10-16T11:34:41;18.82;68.00
67748;HTU21D;54543;50.712;6.070;2022-10-16T11:37:33;18.77;66.20
67748;HTU21D;54543;50.712;6.070;2022-10-16T11:40:25;18.74;66.44
67748;HTU21D;54543;50.712;6.070;2022-10-16T11:43:15;18.83;66.49
67748;HTU21D;54543;50.712;6.070;2022-10-16T11:45:52;18.97;68.33
67748;HTU21D;54543;50.712;6.070;2022-10-16T11:48:42;19.02;64.91
67748;HTU21D;54543;50.712;6.070;2022-10-16T11:56:38;19.26;68.52
67748;HTU21D;54543;50.712;6.070;2022-10-16T12:06:57;19.27;65.88
67748;HTU21D;54543;50.712;6.070;2022-10-16T12:09:28;19.30;67.25
67748;HTU21D;54543;50.712;6.070;2022-10-16T12:11:54;19.39;66.73
67748;HTU21D;54543;50.712;6.070;2022-10-16T12:16:51;19.62;66.78
67748;HTU21D;54543;50.712;6.070;2022-10-16T12:19:18;19.75;66.01
67748;HTU21D;54543;50.712;6.070;2022-10-16T12:21:45;19.84;66.40
67748;HTU21D;54543;50.712;6.070;2022-10-16T12:24:41;19.99;60.90
67748;HTU21D;54543;50.712;6.070;2022-10-16T12:27:40;20.10;59.53
67748;HTU21D;54543;50.712;6.070;2022-10-16T12:30:06;20.16;66.06
67748;HTU21D;54543;50.712;6.070;2022-10-16T12:32:35;20.20;65.73
67748;HTU21D;54543;50.712;6.070;2022-10-16T12:35:03;20.19;65.39
67748;HTU21D;54543;50.712;6.070;2022-10-16T12:39:56;20.07;66.80
67748;HTU21D;54543;50.712;6.070;2022-10-16T12:44:55;19.88;66.56
67748;HTU21D;54543;50.712;6.070;2022-10-16T12:49:59;19.69;67.39
67748;HTU21D;54543;50.712;6.070;2022-10-16T12:54:59;19.61;67.88
67748;HTU21D;54543;50.712;6.070;2022-10-16T12:57:41;19.59;66.60
67748;HTU21D;54543;50.712;6.070;2022-10-16T13:07:21;19.88;64.27
67748;HTU21D;54543;50.712;6.070;2022-10-16T13:12:36;19.77;67.10
67748;HTU21D;54543;50.712;6.070;2022-10-16T13:20:37;20.07;62.07
67748;HTU21D;54543;50.712;6.070;2022-10-16T13:23:20;20.12;64.20
67748;HTU21D;54543;50.712;6.070;2022-10-16T13:28:37;20.19;67.72
67748;HTU21D;54543;50.712;6.070;2022-10-16T13:31:04;20.28;67.85
67748;HTU21D;54543;50.712;6.070;2022-10-16T13:33:33;20.41;67.43
67748;HTU21D;54543;50.712;6.070;2022-10-16T13:35:59;20.66;67.27
67748;HTU21D;54543;50.712;6.070;2022-10-16T13:38:27;20.98;64.83
67748;HTU21D;54543;50.712;6.070;2022-10-16T13:41:04;21.02;65.30
67748;HTU21D;54543;50.712;6.070;2022-10-16T13:43:38;21.00;66.03
67748;HTU21D;54543;50.712;6.070;2022-10-16T13:46:10;20.88;66.47
67748;HTU21D;54543;50.712;6.070;2022-10-16T13:48:36;20.72;67.27
67748;HTU21D;54543;50.712;6.070;2022-10-16T13:51:05;20.64;67.33
67748;HTU21D;54543;50.712;6.070;2022-10-16T13:53:34;20.53;67.50
67748;HTU21D;54543;50.712;6.070;2022-10-16T13:56:03;20.46;68.33
67748;HTU21D;54543;50.712;6.070;2022-10-16T13:58:28;20.40;68.39
67748;HTU21D;54543;50.712;6.070;2022-10-16T14:01:46;20.30;66.45
67748;HTU21D;54543;50.712;6.070;2022-10-16T14:04:08;20.24;68.63
67748;HTU21D;54543;50.712;6.070;2022-10-16T14:06:35;20.20;68.86
67748;HTU21D;54543;50.712;6.070;2022-10-16T14:09:08;20.19;68.65
67748;HTU21D;54543;50.712;6.070;2022-10-16T14:11:46;20.20;68.10
67748;HTU21D;54543;50.712;6.070;2022-10-16T14:14:14;20.26;69.13
67748;HTU21D;54543;50.712;6.070;2022-10-16T14:16:41;20.31;69.07
67748;HTU21D;54543;50.712;6.070;2022-10-16T14:19:21;20.32;66.22
67748;HTU21D;54543;50.712;6.070;2022-10-16T14:21:49;20.29;68.68
67748;HTU21D;54543;50.712;6.070;2022-10-16T14:26:57;20.20;68.75
67748;HTU21D;54543;50.712;6.070;2022-10-16T14:29:25;20.17;68.97
67748;HTU21D;54543;50.712;6.070;2022-10-16T14:31:56;20.15;68.75
67748;HTU21D;54543;50.712;6.070;2022-10-16T14:34:27;20.13;69.12
67748;HTU21D;54543;50.712;6.070;2022-10-16T14:36:55;20.13;69.43
67748;HTU21D;54543;50.712;6.070;2022-10-16T14:39:21;20.12;69.49
67748;HTU21D;54543;50.712;6.070;2022-10-16T14:41:49;20.10;69.55
67748;HTU21D;54543;50.712;6.070;2022-10-16T14:44:17;20.07;69.58
67748;HTU21D;54543;50.712;6.070;2022-10-16T14:46:44;20.07;69.54
67748;HTU21D;54543;50.712;6.070;2022-10-16T14:51:39;20.03;69.65
67748;HTU21D;54543;50.712;6.070;2022-10-16T14:54:08;20.00;69.78
67748;HTU21D;54543;50.712;6.070;2022-10-16T14:56:56;19.94;68.42
67748;HTU21D;54543;50.712;6.070;2022-10-16T14:59:31;19.89;68.63
67748;HTU21D;54543;50.712;6.070;2022-10-16T15:01:58;19.85;69.95
67748;HTU21D;54543;50.712;6.070;2022-10-16T15:04:23;19.81;69.97
67748;HTU21D;54543;50.712;6.070;2022-10-16T15:06:49;19.77;70.26
67748;HTU21D;54543;50.712;6.070;2022-10-16T15:09:14;19.74;70.42
67748;HTU21D;54543;50.712;6.070;2022-10-16T15:11:41;19.73;70.56
67748;HTU21D;54543;50.712;6.070;2022-10-16T15:14:11;19.70;70.48
67748;HTU21D;54543;50.712;6.070;2022-10-16T15:16:37;19.69;70.75
67748;HTU21D;54543;50.712;6.070;2022-10-16T15:19:02;19.69;70.82
67748;HTU21D;54543;50.712;6.070;2022-10-16T15:21:30;19.70;70.74
67748;HTU21D;54543;50.712;6.070;2022-10-16T15:23:57;19.66;70.79
67748;HTU21D;54543;50.712;6.070;2022-10-16T15:26:25;19.61;70.90
67748;HTU21D;54543;50.712;6.070;2022-10-16T15:28:51;19.56;71.07
67748;HTU21D;54543;50.712;6.070;2022-10-16T15:31:16;19.53;71.15
67748;HTU21D;54543;50.712;6.070;2022-10-16T15:33:42;19.48;71.26
67748;HTU21D;54543;50.712;6.070;2022-10-16T15:36:08;19.43;71.42
67748;HTU21D;54543;50.712;6.070;2022-10-16T15:38:34;19.39;71.60
67748;HTU21D;54543;50.712;6.070;2022-10-16T15:40:59;19.35;71.71
67748;HTU21D;54543;50.712;6.070;2022-10-16T15:43:25;19.31;71.84
67748;HTU21D;54543;50.712;6.070;2022-10-16T15:46:06;19.27;71.45
67748;HTU21D;54543;50.712;6.070;2022-10-16T15:48:32;19.25;72.00
67748;HTU21D;54543;50.712;6.070;2022-10-16T15:50:58;19.21;72.03
67748;HTU21D;54543;50.712;6.070;2022-10-16T15:53:24;19.17;72.16
67748;HTU21D;54543;50.712;6.070;2022-10-16T15:55:50;19.11;72.36
67748;HTU21D;54543;50.712;6.070;2022-10-16T15:58:15;19.07;72.51
67748;HTU21D;54543;50.712;6.070;2022-10-16T16:00:41;19.02;72.57
67748;HTU21D;54543;50.712;6.070;2022-10-16T16:03:07;18.98;72.67
67748;HTU21D;54543;50.712;6.070;2022-10-16T16:05:32;18.94;72.71
67748;HTU21D;54543;50.712;6.070;2022-10-16T16:07:58;18.89;72.87
67748;HTU21D;54543;50.712;6.070;2022-10-16T16:10:24;18.85;72.95
67748;HTU21D;54543;50.712;6.070;2022-10-16T16:12:50;18.80;73.00
67748;HTU21D;54543;50.712;6.070;2022-10-16T16:15:18;18.76;73.12
67748;HTU21D;54543;50.712;6.070;2022-10-16T16:17:43;18.69;73.27
67748;HTU21D;54543;50.712;6.070;2022-10-16T16:20:09;18.66;73.41
67748;HTU21D;54543;50.712;6.070;2022-10-16T16:22:35;18.61;73.54
67748;HTU21D;54543;50.712;6.070;2022-10-16T16:25:01;18.53;73.76
67748;HTU21D;54543;50.712;6.070;2022-10-16T16:27:27;18.49;73.90
67748;HTU21D;54543;50.712;6.070;2022-10-16T16:29:55;18.43;74.01
67748;HTU21D;54543;50.712;6.070;2022-10-16T16:32:21;18.40;74.12
67748;HTU21D;54543;50.712;6.070;2022-10-16T16:34:47;18.36;74.20
67748;HTU21D;54543;50.712;6.070;2022-10-16T16:37:12;18.34;74.33
67748;HTU21D;54543;50.712;6.070;2022-10-16T16:39:38;18.29;74.47
67748;HTU21D;54543;50.712;6.070;2022-10-16T16:42:04;18.27;74.51
67748;HTU21D;54543;50.712;6.070;2022-10-16T16:44:31;18.24;74.68
67748;HTU21D;54543;50.712;6.070;2022-10-16T16:46:57;18.23;74.88
67748;HTU21D;54543;50.712;6.070;2022-10-16T16:49:23;18.23;74.92
67748;HTU21D;54543;50.712;6.070;2022-10-16T16:51:48;18.20;74.94
67748;HTU21D;54543;50.712;6.070;2022-10-16T16:54:14;18.18;75.00
67748;HTU21D;54543;50.712;6.070;2022-10-16T16:56:39;18.14;75.14
67748;HTU21D;54543;50.712;6.070;2022-10-16T16:59:12;18.10;75.25
67748;HTU21D;54543;50.712;6.070;2022-10-16T17:01:38;18.04;75.50
67748;HTU21D;54543;50.712;6.070;2022-10-16T17:04:05;18.02;75.71
67748;HTU21D;54543;50.712;6.070;2022-10-16T17:06:30;17.99;75.83
67748;HTU21D;54543;50.712;6.070;2022-10-16T17:08:58;17.97;75.89
67748;HTU21D;54543;50.712;6.070;2022-10-16T17:11:25;17.96;76.01
67748;HTU21D;54543;50.712;6.070;2022-10-16T17:13:53;17.92;76.15
67748;HTU21D;54543;50.712;6.070;2022-10-16T17:16:20;17.85;76.31
67748;HTU21D;54543;50.712;6.070;2022-10-16T17:18:46;17.77;76.61